sensor_id;sensor_type;location;lat;lon;timestamp;temperature;humidity
69543;SHT31;56762;49.494;11.768;2022-09-27T00:01:48;11.73;79.09
69543;SHT31;56762;49.494;11.768;2022-09-27T00:04:16;11.73;79.31
69543;SHT31;56762;49.494;11.768;2022-09-27T00:06:44;11.72;79.75
69543;SHT31;56762;49.494;11.768;2022-09-27T00:09:15;11.70;80.02
69543;SHT31;56762;49.494;11.768;2022-09-27T00:11:43;11.69;79.35
69543;SHT31;56762;49.494;11.768;2022-09-27T00:14:15;11.66;80.63
69543;SHT31;56762;49.494;11.768;2022-09-27T00:16:45;11.63;80.85
69543;SHT31;56762;49.494;11.768;2022-09-27T00:19:15;11.61;80.56
69543;SHT31;56762;49.494;11.768;2022-09-27T00:21:44;11.58;80.79
69543;SHT31;56762;49.494;11.768;2022-09-27T00:24:14;11.55;81.04
69543;SHT31;56762;49.494;11.768;2022-09-27T00:26:42;11.54;81.32
69543;SHT31;56762;49.494;11.768;2022-09-27T00:29:10;11.58;81.14
69543;SHT31;56762;49.494;11.768;2022-09-27T00:31:38;11.51;81.83
69543;SHT31;56762;49.494;11.768;2022-09-27T00:34:15;11.51;82.51
69543;SHT31;56762;49.494;11.768;2022-09-27T00:36:44;11.49;82.64
69543;SHT31;56762;49.494;11.768;2022-09-27T00:39:12;11.46;82.80
69543;SHT31;56762;49.494;11.768;2022-09-27T00:41:41;11.48;82.73
69543;SHT31;56762;49.494;11.768;2022-09-27T00:44:50;11.42;83.12
69543;SHT31;56762;49.494;11.768;2022-09-27T00:47:24;11.45;83.03
69543;SHT31;56762;49.494;11.768;2022-09-27T00:49:58;11.42;82.86
69543;SHT31;56762;49.494;11.768;2022-09-27T00:52:33;11.45;82.78
69543;SHT31;56762;49.494;11.768;2022-09-27T00:55:07;11.34;83.54
69543;SHT31;56762;49.494;11.768;2022-09-27T00:57:37;11.31;83.49
69543;SHT31;56762;49.494;11.768;2022-09-27T01:00:10;11.32;83.86
69543;SHT31;56762;49.494;11.768;2022-09-27T01:02:44;11.29;84.13
69543;SHT31;56762;49.494;11.768;2022-09-27T01:05:17;11.32;83.81
69543;SHT31;56762;49.494;11.768;2022-09-27T01:07:49;11.27;84.30
69543;SHT31;56762;49.494;11.768;2022-09-27T01:10:17;11.19;84.06
69543;SHT31;56762;49.494;11.768;2022-09-27T01:12:55;11.18;84.26
69543;SHT31;56762;49.494;11.768;2022-09-27T01:15:34;11.15;84.50
69543;SHT31;56762;49.494;11.768;2022-09-27T01:18:15;11.17;84.51
69543;SHT31;56762;49.494;11.768;2022-09-27T01:21:09;11.14;84.81
69543;SHT31;56762;49.494;11.768;2022-09-27T01:23:56;11.17;85.00
69543;SHT31;56762;49.494;11.768;2022-09-27T01:26:53;11.19;84.48
69543;SHT31;56762;49.494;11.768;2022-09-27T01:29:31;11.15;85.00
69543;SHT31;56762;49.494;11.768;2022-09-27T01:32:08;11.12;85.53
69543;SHT31;56762;49.494;11.768;2022-09-27T01:34:44;11.21;84.24
69543;SHT31;56762;49.494;11.768;2022-09-27T01:37:18;11.14;84.68
69543;SHT31;56762;49.494;11.768;2022-09-27T01:39:54;11.14;84.93
69543;SHT31;56762;49.494;11.768;2022-09-27T01:42:28;11.12;84.51
69543;SHT31;56762;49.494;11.768;2022-09-27T01:45:02;11.11;84.91
69543;SHT31;56762;49.494;11.768;2022-09-27T01:47:37;11.08;84.86
69543;SHT31;56762;49.494;11.768;2022-09-27T01:50:11;11.08;85.25
69543;SHT31;56762;49.494;11.768;2022-09-27T01:52:45;11.06;85.44
69543;SHT31;56762;49.494;11.768;2022-09-27T01:55:16;11.08;85.91
69543;SHT31;56762;49.494;11.768;2022-09-27T01:57:49;11.10;85.41
69543;SHT31;56762;49.494;11.768;2022-09-27T02:00:20;11.11;85.45
69543;SHT31;56762;49.494;11.768;2022-09-27T02:02:54;11.08;85.22
69543;SHT31;56762;49.494;11.768;2022-09-27T02:05:28;11.11;84.89
69543;SHT31;56762;49.494;11.768;2022-09-27T02:07:59;11.12;85.19
69543;SHT31;56762;49.494;11.768;2022-09-27T02:10:30;11.28;83.79
69543;SHT31;56762;49.494;11.768;2022-09-27T02:13:04;11.15;84.97
69543;SHT31;56762;49.494;11.768;2022-09-27T02:19:26;11.11;85.00
69543;SHT31;56762;49.494;11.768;2022-09-27T02:22:04;11.14;83.40
69543;SHT31;56762;49.494;11.768;2022-09-27T02:24:41;11.07;84.55
69543;SHT31;56762;49.494;11.768;2022-09-27T02:27:16;11.04;84.46
69543;SHT31;56762;49.494;11.768;2022-09-27T02:29:49;10.98;84.68
69543;SHT31;56762;49.494;11.768;2022-09-27T02:32:19;10.97;83.94
69543;SHT31;56762;49.494;11.768;2022-09-27T02:34:49;10.91;84.41
69543;SHT31;56762;49.494;11.768;2022-09-27T02:37:19;10.88;84.99
69543;SHT31;56762;49.494;11.768;2022-09-27T02:39:47;10.87;84.96
69543;SHT31;56762;49.494;11.768;2022-09-27T02:42:15;10.90;85.02
69543;SHT31;56762;49.494;11.768;2022-09-27T02:44:43;10.91;84.84
69543;SHT31;56762;49.494;11.768;2022-09-27T02:47:31;10.91;85.23
69543;SHT31;56762;49.494;11.768;2022-09-27T02:50:22;10.93;85.28
69543;SHT31;56762;49.494;11.768;2022-09-27T02:52:58;10.93;85.41
69543;SHT31;56762;49.494;11.768;2022-09-27T02:55:41;10.93;84.87
69543;SHT31;56762;49.494;11.768;2022-09-27T02:58:23;10.90;85.91
69543;SHT31;56762;49.494;11.768;2022-09-27T03:01:00;10.94;85.17
69543;SHT31;56762;49.494;11.768;2022-09-27T03:03:35;10.97;85.24
69543;SHT31;56762;49.494;11.768;2022-09-27T03:06:08;10.94;85.34
69543;SHT31;56762;49.494;11.768;2022-09-27T03:08:37;10.93;86.16
69543;SHT31;56762;49.494;11.768;2022-09-27T03:11:05;10.94;86.78
69543;SHT31;56762;49.494;11.768;2022-09-27T03:13:33;10.93;86.60
69543;SHT31;56762;49.494;11.768;2022-09-27T03:16:24;10.94;86.29
69543;SHT31;56762;49.494;11.768;2022-09-27T03:18:52;10.96;86.17
69543;SHT31;56762;49.494;11.768;2022-09-27T03:21:21;10.94;86.52
69543;SHT31;56762;49.494;11.768;2022-09-27T03:23:49;10.97;86.59
69543;SHT31;56762;49.494;11.768;2022-09-27T03:26:17;11.01;86.83
69543;SHT31;56762;49.494;11.768;2022-09-27T03:28:45;10.96;87.07
69543;SHT31;56762;49.494;11.768;2022-09-27T03:31:13;10.96;86.80
69543;SHT31;56762;49.494;11.768;2022-09-27T03:33:41;10.97;87.58
69543;SHT31;56762;49.494;11.768;2022-09-27T03:36:09;10.96;87.56
69543;SHT31;56762;49.494;11.768;2022-09-27T03:38:39;10.96;87.44
69543;SHT31;56762;49.494;11.768;2022-09-27T03:41:07;10.98;87.55
69543;SHT31;56762;49.494;11.768;2022-09-27T03:43:35;10.94;87.91
69543;SHT31;56762;49.494;11.768;2022-09-27T03:46:04;10.94;88.23
69543;SHT31;56762;49.494;11.768;2022-09-27T03:48:32;10.93;88.34
69543;SHT31;56762;49.494;11.768;2022-09-27T03:51:00;10.94;88.55
69543;SHT31;56762;49.494;11.768;2022-09-27T03:53:28;10.91;88.16
69543;SHT31;56762;49.494;11.768;2022-09-27T03:55:57;10.94;88.11
69543;SHT31;56762;49.494;11.768;2022-09-27T03:58:25;10.93;88.20
69543;SHT31;56762;49.494;11.768;2022-09-27T04:00:52;10.91;88.29
69543;SHT31;56762;49.494;11.768;2022-09-27T04:03:20;10.94;88.17
69543;SHT31;56762;49.494;11.768;2022-09-27T04:05:48;10.93;88.38
69543;SHT31;56762;49.494;11.768;2022-09-27T04:08:16;10.91;88.18
69543;SHT31;56762;49.494;11.768;2022-09-27T04:10:44;10.93;88.17
69543;SHT31;56762;49.494;11.768;2022-09-27T04:13:13;10.96;87.66
69543;SHT31;56762;49.494;11.768;2022-09-27T04:15:41;10.98;87.81
69543;SHT31;56762;49.494;11.768;2022-09-27T04:18:13;10.98;87.61
69543;SHT31;56762;49.494;11.768;2022-09-27T04:20:42;11.00;86.53
69543;SHT31;56762;49.494;11.768;2022-09-27T04:23:11;10.97;86.71
69543;SHT31;56762;49.494;11.768;2022-09-27T04:25:39;10.93;86.96
69543;SHT31;56762;49.494;11.768;2022-09-27T04:28:07;10.93;86.82
69543;SHT31;56762;49.494;11.768;2022-09-27T04:30:36;10.91;87.48
69543;SHT31;56762;49.494;11.768;2022-09-27T04:33:04;10.90;87.15
69543;SHT31;56762;49.494;11.768;2022-09-27T04:35:32;10.93;87.03
69543;SHT31;56762;49.494;11.768;2022-09-27T04:38:17;10.93;87.09
69543;SHT31;56762;49.494;11.768;2022-09-27T04:40:49;10.94;87.02
69543;SHT31;56762;49.494;11.768;2022-09-27T04:43:17;10.93;86.91
69543;SHT31;56762;49.494;11.768;2022-09-27T04:45:47;10.90;86.49
69543;SHT31;56762;49.494;11.768;2022-09-27T04:48:15;10.85;87.16
69543;SHT31;56762;49.494;11.768;2022-09-27T04:50:43;10.81;87.66
69543;SHT31;56762;49.494;11.768;2022-09-27T04:53:12;10.83;87.78
69543;SHT31;56762;49.494;11.768;2022-09-27T04:55:44;10.83;88.11
69543;SHT31;56762;49.494;11.768;2022-09-27T04:58:13;10.80;88.59
69543;SHT31;56762;49.494;11.768;2022-09-27T05:00:41;10.85;88.47
69543;SHT31;56762;49.494;11.768;2022-09-27T05:03:10;10.84;87.82
69543;SHT31;56762;49.494;11.768;2022-09-27T05:05:39;10.83;88.16
69543;SHT31;56762;49.494;11.768;2022-09-27T05:08:06;10.81;88.25
69543;SHT31;56762;49.494;11.768;2022-09-27T05:10:34;10.83;88.38
69543;SHT31;56762;49.494;11.768;2022-09-27T05:13:02;10.85;87.91
69543;SHT31;56762;49.494;11.768;2022-09-27T05:15:29;10.84;87.54
69543;SHT31;56762;49.494;11.768;2022-09-27T05:17:57;10.88;87.35
69543;SHT31;56762;49.494;11.768;2022-09-27T05:20:26;10.91;86.73
69543;SHT31;56762;49.494;11.768;2022-09-27T05:22:54;10.90;86.52
69543;SHT31;56762;49.494;11.768;2022-09-27T05:25:22;10.85;86.84
69543;SHT31;56762;49.494;11.768;2022-09-27T05:27:50;10.90;86.52
69543;SHT31;56762;49.494;11.768;2022-09-27T05:30:18;10.85;86.68
69543;SHT31;56762;49.494;11.768;2022-09-27T05:32:46;10.87;86.41
69543;SHT31;56762;49.494;11.768;2022-09-27T05:35:15;10.84;87.36
69543;SHT31;56762;49.494;11.768;2022-09-27T05:37:51;10.88;86.74
69543;SHT31;56762;49.494;11.768;2022-09-27T05:40:19;10.87;86.81
69543;SHT31;56762;49.494;11.768;2022-09-27T05:43:07;10.81;86.85
69543;SHT31;56762;49.494;11.768;2022-09-27T05:45:36;10.84;87.58
69543;SHT31;56762;49.494;11.768;2022-09-27T05:48:04;10.83;87.22
69543;SHT31;56762;49.494;11.768;2022-09-27T05:50:32;10.80;87.30
69543;SHT31;56762;49.494;11.768;2022-09-27T05:53:03;10.85;86.10
69543;SHT31;56762;49.494;11.768;2022-09-27T05:55:31;10.83;86.69
69543;SHT31;56762;49.494;11.768;2022-09-27T05:58:02;10.81;86.10
69543;SHT31;56762;49.494;11.768;2022-09-27T06:00:31;10.81;85.50
69543;SHT31;56762;49.494;11.768;2022-09-27T06:03:00;10.76;84.32
69543;SHT31;56762;49.494;11.768;2022-09-27T06:05:30;10.77;84.25
69543;SHT31;56762;49.494;11.768;2022-09-27T06:07:59;10.70;83.68
69543;SHT31;56762;49.494;11.768;2022-09-27T06:10:29;10.68;83.88
69543;SHT31;56762;49.494;11.768;2022-09-27T06:12:58;10.64;83.97
69543;SHT31;56762;49.494;11.768;2022-09-27T06:15:28;10.64;83.75
69543;SHT31;56762;49.494;11.768;2022-09-27T06:18:02;10.66;84.20
69543;SHT31;56762;49.494;11.768;2022-09-27T06:20:32;10.71;82.91
69543;SHT31;56762;49.494;11.768;2022-09-27T06:23:06;10.60;84.49
69543;SHT31;56762;49.494;11.768;2022-09-27T06:25:35;10.61;84.94
69543;SHT31;56762;49.494;11.768;2022-09-27T06:28:07;10.63;85.49
69543;SHT31;56762;49.494;11.768;2022-09-27T06:30:37;10.66;84.81
69543;SHT31;56762;49.494;11.768;2022-09-27T06:33:11;10.67;84.85
69543;SHT31;56762;49.494;11.768;2022-09-27T06:35:40;10.64;84.83
69543;SHT31;56762;49.494;11.768;2022-09-27T06:38:12;10.66;84.87
69543;SHT31;56762;49.494;11.768;2022-09-27T06:40:43;10.63;85.05
69543;SHT31;56762;49.494;11.768;2022-09-27T06:43:13;10.67;85.03
69543;SHT31;56762;49.494;11.768;2022-09-27T06:45:41;10.67;84.89
69543;SHT31;56762;49.494;11.768;2022-09-27T06:48:11;10.64;85.60
69543;SHT31;56762;49.494;11.768;2022-09-27T06:50:41;10.68;85.37
69543;SHT31;56762;49.494;11.768;2022-09-27T06:53:11;10.73;84.25
69543;SHT31;56762;49.494;11.768;2022-09-27T06:55:43;10.63;85.33
69543;SHT31;56762;49.494;11.768;2022-09-27T06:58:11;10.63;85.42
69543;SHT31;56762;49.494;11.768;2022-09-27T07:00:56;10.61;85.92
69543;SHT31;56762;49.494;11.768;2022-09-27T07:03:25;10.66;86.68
69543;SHT31;56762;49.494;11.768;2022-09-27T07:06:03;10.70;85.89
69543;SHT31;56762;49.494;11.768;2022-09-27T07:08:32;10.71;85.93
69543;SHT31;56762;49.494;11.768;2022-09-27T07:11:04;10.73;86.08
69543;SHT31;56762;49.494;11.768;2022-09-27T07:13:32;10.78;84.80
69543;SHT31;56762;49.494;11.768;2022-09-27T07:16:05;10.80;85.78
69543;SHT31;56762;49.494;11.768;2022-09-27T07:18:34;10.83;84.65
69543;SHT31;56762;49.494;11.768;2022-09-27T07:21:02;10.81;84.85
69543;SHT31;56762;49.494;11.768;2022-09-27T07:23:30;10.76;85.62
69543;SHT31;56762;49.494;11.768;2022-09-27T07:26:00;10.77;85.03
69543;SHT31;56762;49.494;11.768;2022-09-27T07:28:31;10.80;85.40
69543;SHT31;56762;49.494;11.768;2022-09-27T07:30:59;10.84;84.55
69543;SHT31;56762;49.494;11.768;2022-09-27T07:33:28;10.83;84.08
69543;SHT31;56762;49.494;11.768;2022-09-27T07:35:56;10.80;84.55
69543;SHT31;56762;49.494;11.768;2022-09-27T07:38:24;10.83;84.17
69543;SHT31;56762;49.494;11.768;2022-09-27T07:40:53;10.83;84.03
69543;SHT31;56762;49.494;11.768;2022-09-27T07:43:21;10.84;84.87
69543;SHT31;56762;49.494;11.768;2022-09-27T07:45:50;10.94;85.20
69543;SHT31;56762;49.494;11.768;2022-09-27T07:48:18;10.93;83.89
69543;SHT31;56762;49.494;11.768;2022-09-27T07:50:46;10.96;84.35
69543;SHT31;56762;49.494;11.768;2022-09-27T07:53:14;10.96;84.48
69543;SHT31;56762;49.494;11.768;2022-09-27T07:55:42;10.98;83.86
69543;SHT31;56762;49.494;11.768;2022-09-27T07:58:10;11.01;85.36
69543;SHT31;56762;49.494;11.768;2022-09-27T08:00:39;11.06;84.89
69543;SHT31;56762;49.494;11.768;2022-09-27T08:03:10;11.04;84.75
69543;SHT31;56762;49.494;11.768;2022-09-27T08:05:42;10.96;83.98
69543;SHT31;56762;49.494;11.768;2022-09-27T08:08:10;10.93;84.39
69543;SHT31;56762;49.494;11.768;2022-09-27T08:10:38;10.87;84.53
69543;SHT31;56762;49.494;11.768;2022-09-27T08:13:13;10.77;84.85
69543;SHT31;56762;49.494;11.768;2022-09-27T08:15:43;10.76;86.02
69543;SHT31;56762;49.494;11.768;2022-09-27T08:18:14;10.78;83.86
69543;SHT31;56762;49.494;11.768;2022-09-27T08:20:43;10.74;83.55
69543;SHT31;56762;49.494;11.768;2022-09-27T08:23:12;10.71;83.50
69543;SHT31;56762;49.494;11.768;2022-09-27T08:25:40;10.70;83.16
69543;SHT31;56762;49.494;11.768;2022-09-27T08:28:08;10.59;83.26
69543;SHT31;56762;49.494;11.768;2022-09-27T08:30:36;10.61;82.40
69543;SHT31;56762;49.494;11.768;2022-09-27T08:33:04;10.59;83.25
69543;SHT31;56762;49.494;11.768;2022-09-27T08:35:35;10.63;82.26
69543;SHT31;56762;49.494;11.768;2022-09-27T08:38:03;10.61;83.12
69543;SHT31;56762;49.494;11.768;2022-09-27T08:40:42;10.71;84.57
69543;SHT31;56762;49.494;11.768;2022-09-27T08:43:19;10.81;83.02
69543;SHT31;56762;49.494;11.768;2022-09-27T08:46:02;10.88;83.05
69543;SHT31;56762;49.494;11.768;2022-09-27T08:48:33;10.87;81.89
69543;SHT31;56762;49.494;11.768;2022-09-27T08:51:10;10.88;80.74
69543;SHT31;56762;49.494;11.768;2022-09-27T08:53:43;10.88;81.14
69543;SHT31;56762;49.494;11.768;2022-09-27T08:56:13;10.84;82.53
69543;SHT31;56762;49.494;11.768;2022-09-27T08:58:50;10.96;81.72
69543;SHT31;56762;49.494;11.768;2022-09-27T09:01:19;11.00;80.87
69543;SHT31;56762;49.494;11.768;2022-09-27T09:03:55;10.93;81.49
69543;SHT31;56762;49.494;11.768;2022-09-27T09:06:26;10.93;80.77
69543;SHT31;56762;49.494;11.768;2022-09-27T09:09:02;10.90;80.51
69543;SHT31;56762;49.494;11.768;2022-09-27T09:11:45;10.84;81.83
69543;SHT31;56762;49.494;11.768;2022-09-27T09:14:58;10.88;81.34
69543;SHT31;56762;49.494;11.768;2022-09-27T09:17:41;10.87;81.23
69543;SHT31;56762;49.494;11.768;2022-09-27T09:20:20;10.94;82.67
69543;SHT31;56762;49.494;11.768;2022-09-27T09:23:10;10.94;81.39
69543;SHT31;56762;49.494;11.768;2022-09-27T09:25:51;10.91;81.78
69543;SHT31;56762;49.494;11.768;2022-09-27T09:28:33;10.97;81.57
69543;SHT31;56762;49.494;11.768;2022-09-27T09:31:07;10.98;81.75
69543;SHT31;56762;49.494;11.768;2022-09-27T09:33:40;10.98;81.32
69543;SHT31;56762;49.494;11.768;2022-09-27T09:36:21;11.11;81.84
69543;SHT31;56762;49.494;11.768;2022-09-27T09:38:53;11.28;80.28
69543;SHT31;56762;49.494;11.768;2022-09-27T09:41:26;11.51;79.87
69543;SHT31;56762;49.494;11.768;2022-09-27T09:43:58;11.68;78.52
69543;SHT31;56762;49.494;11.768;2022-09-27T09:46:33;11.89;76.94
69543;SHT31;56762;49.494;11.768;2022-09-27T09:49:14;12.00;76.85
69543;SHT31;56762;49.494;11.768;2022-09-27T09:51:47;12.06;77.70
69543;SHT31;56762;49.494;11.768;2022-09-27T09:54:22;12.10;77.14
69543;SHT31;56762;49.494;11.768;2022-09-27T09:56:56;12.20;76.32
69543;SHT31;56762;49.494;11.768;2022-09-27T09:59:29;12.34;76.36
69543;SHT31;56762;49.494;11.768;2022-09-27T10:02:20;12.48;74.82
69543;SHT31;56762;49.494;11.768;2022-09-27T10:04:50;12.42;73.28
69543;SHT31;56762;49.494;11.768;2022-09-27T10:07:22;12.44;74.27
69543;SHT31;56762;49.494;11.768;2022-09-27T10:09:54;12.41;73.77
69543;SHT31;56762;49.494;11.768;2022-09-27T10:12:25;12.23;74.11
69543;SHT31;56762;49.494;11.768;2022-09-27T10:14:55;12.07;75.89
69543;SHT31;56762;49.494;11.768;2022-09-27T10:17:34;11.91;77.26
69543;SHT31;56762;49.494;11.768;2022-09-27T10:20:05;11.70;78.10
69543;SHT31;56762;49.494;11.768;2022-09-27T10:22:36;11.52;80.97
69543;SHT31;56762;49.494;11.768;2022-09-27T10:25:08;11.42;81.54
69543;SHT31;56762;49.494;11.768;2022-09-27T10:27:42;11.34;81.56
69543;SHT31;56762;49.494;11.768;2022-09-27T10:30:22;11.31;81.06
69543;SHT31;56762;49.494;11.768;2022-09-27T10:32:55;11.42;82.40
69543;SHT31;56762;49.494;11.768;2022-09-27T10:35:37;11.48;83.23
69543;SHT31;56762;49.494;11.768;2022-09-27T10:38:22;11.55;81.86
69543;SHT31;56762;49.494;11.768;2022-09-27T10:40:53;11.58;81.72
69543;SHT31;56762;49.494;11.768;2022-09-27T10:43:24;11.61;82.86
69543;SHT31;56762;49.494;11.768;2022-09-27T10:46:04;11.70;81.44
69543;SHT31;56762;49.494;11.768;2022-09-27T10:48:33;11.82;82.52
69543;SHT31;56762;49.494;11.768;2022-09-27T10:51:04;11.91;79.25
69543;SHT31;56762;49.494;11.768;2022-09-27T10:53:34;11.91;77.79
69543;SHT31;56762;49.494;11.768;2022-09-27T10:56:03;11.85;80.83
69543;SHT31;56762;49.494;11.768;2022-09-27T10:58:33;11.83;80.31
69543;SHT31;56762;49.494;11.768;2022-09-27T11:01:03;11.79;80.16
69543;SHT31;56762;49.494;11.768;2022-09-27T11:03:34;11.79;79.68
69543;SHT31;56762;49.494;11.768;2022-09-27T11:06:18;11.83;81.66
69543;SHT31;56762;49.494;11.768;2022-09-27T11:08:46;11.86;79.29
69543;SHT31;56762;49.494;11.768;2022-09-27T11:11:20;11.87;80.38
69543;SHT31;56762;49.494;11.768;2022-09-27T11:13:57;11.82;81.62
69543;SHT31;56762;49.494;11.768;2022-09-27T11:16:37;11.80;79.43
69543;SHT31;56762;49.494;11.768;2022-09-27T11:19:25;11.83;79.31
69543;SHT31;56762;49.494;11.768;2022-09-27T11:22:00;11.87;78.33
69543;SHT31;56762;49.494;11.768;2022-09-27T11:24:42;11.83;77.34
69543;SHT31;56762;49.494;11.768;2022-09-27T11:27:24;11.72;79.11
69543;SHT31;56762;49.494;11.768;2022-09-27T11:30:03;11.75;79.76
69543;SHT31;56762;49.494;11.768;2022-09-27T11:32:41;11.82;80.15
69543;SHT31;56762;49.494;11.768;2022-09-27T11:35:32;11.89;80.43
69543;SHT31;56762;49.494;11.768;2022-09-27T11:38:16;12.01;79.43
69543;SHT31;56762;49.494;11.768;2022-09-27T11:41:23;12.01;79.96
69543;SHT31;56762;49.494;11.768;2022-09-27T11:44:14;11.97;80.59
69543;SHT31;56762;49.494;11.768;2022-09-27T11:46:51;11.76;80.87
69543;SHT31;56762;49.494;11.768;2022-09-27T11:49:41;11.48;81.08
69543;SHT31;56762;49.494;11.768;2022-09-27T11:52:22;11.28;82.36
69543;SHT31;56762;49.494;11.768;2022-09-27T11:55:06;11.14;83.21
69543;SHT31;56762;49.494;11.768;2022-09-27T11:57:41;11.07;83.97
69543;SHT31;56762;49.494;11.768;2022-09-27T12:00:19;11.04;81.39
69543;SHT31;56762;49.494;11.768;2022-09-27T12:03:03;11.03;80.65
69543;SHT31;56762;49.494;11.768;2022-09-27T12:05:44;10.85;81.02
69543;SHT31;56762;49.494;11.768;2022-09-27T12:11:19;10.78;82.34
69543;SHT31;56762;49.494;11.768;2022-09-27T12:13:49;10.80;81.30
69543;SHT31;56762;49.494;11.768;2022-09-27T12:16:21;10.90;83.06
69543;SHT31;56762;49.494;11.768;2022-09-27T12:18:51;11.00;83.18
69543;SHT31;56762;49.494;11.768;2022-09-27T12:21:20;11.12;82.95
69543;SHT31;56762;49.494;11.768;2022-09-27T12:23:49;11.17;82.97
69543;SHT31;56762;49.494;11.768;2022-09-27T12:26:21;11.21;80.39
69543;SHT31;56762;49.494;11.768;2022-09-27T12:28:53;11.24;80.86
69543;SHT31;56762;49.494;11.768;2022-09-27T12:31:28;11.32;79.76
69543;SHT31;56762;49.494;11.768;2022-09-27T12:34:10;11.40;80.26
69543;SHT31;56762;49.494;11.768;2022-09-27T12:36:48;11.49;79.38
69543;SHT31;56762;49.494;11.768;2022-09-27T12:39:21;11.56;78.66
69543;SHT31;56762;49.494;11.768;2022-09-27T12:41:54;11.54;78.93
69543;SHT31;56762;49.494;11.768;2022-09-27T12:44:27;11.69;80.37
69543;SHT31;56762;49.494;11.768;2022-09-27T12:47:06;11.76;79.27
69543;SHT31;56762;49.494;11.768;2022-09-27T12:49:45;11.79;80.39
69543;SHT31;56762;49.494;11.768;2022-09-27T12:52:20;11.89;78.63
69543;SHT31;56762;49.494;11.768;2022-09-27T12:55:05;12.03;80.71
69543;SHT31;56762;49.494;11.768;2022-09-27T12:57:45;12.14;79.58
69543;SHT31;56762;49.494;11.768;2022-09-27T13:00:19;12.20;78.73
69543;SHT31;56762;49.494;11.768;2022-09-27T13:03:17;12.18;78.66
69543;SHT31;56762;49.494;11.768;2022-09-27T13:06:12;12.16;77.43
69543;SHT31;56762;49.494;11.768;2022-09-27T13:08:58;11.99;77.98
69543;SHT31;56762;49.494;11.768;2022-09-27T13:11:38;11.87;78.42
69543;SHT31;56762;49.494;11.768;2022-09-27T13:14:15;11.76;78.98
69543;SHT31;56762;49.494;11.768;2022-09-27T13:16:45;11.72;78.93
69543;SHT31;56762;49.494;11.768;2022-09-27T13:19:39;11.56;80.63
69543;SHT31;56762;49.494;11.768;2022-09-27T13:22:10;11.59;80.27
69543;SHT31;56762;49.494;11.768;2022-09-27T13:24:57;11.58;79.77
69543;SHT31;56762;49.494;11.768;2022-09-27T13:27:39;11.58;80.44
69543;SHT31;56762;49.494;11.768;2022-09-27T13:33:40;11.66;80.95
69543;SHT31;56762;49.494;11.768;2022-09-27T13:36:24;11.72;79.99
69543;SHT31;56762;49.494;11.768;2022-09-27T13:39:15;11.72;80.47
69543;SHT31;56762;49.494;11.768;2022-09-27T13:42:00;11.75;79.31
69543;SHT31;56762;49.494;11.768;2022-09-27T13:44:38;11.77;78.08
69543;SHT31;56762;49.494;11.768;2022-09-27T13:47:20;11.70;79.78
69543;SHT31;56762;49.494;11.768;2022-09-27T13:49:55;11.76;78.69
69543;SHT31;56762;49.494;11.768;2022-09-27T13:52:29;11.87;80.49
69543;SHT31;56762;49.494;11.768;2022-09-27T13:55:00;11.96;78.65
69543;SHT31;56762;49.494;11.768;2022-09-27T13:57:46;12.03;77.92
69543;SHT31;56762;49.494;11.768;2022-09-27T14:00:18;12.01;78.54
69543;SHT31;56762;49.494;11.768;2022-09-27T14:02:58;12.10;77.87
69543;SHT31;56762;49.494;11.768;2022-09-27T14:05:32;12.16;77.49
69543;SHT31;56762;49.494;11.768;2022-09-27T14:08:04;12.23;75.72
69543;SHT31;56762;49.494;11.768;2022-09-27T14:10:33;12.30;76.80
69543;SHT31;56762;49.494;11.768;2022-09-27T14:13:03;12.40;76.36
69543;SHT31;56762;49.494;11.768;2022-09-27T14:15:31;12.40;77.02
69543;SHT31;56762;49.494;11.768;2022-09-27T14:18:00;12.45;76.12
69543;SHT31;56762;49.494;11.768;2022-09-27T14:20:33;12.41;75.74
69543;SHT31;56762;49.494;11.768;2022-09-27T14:23:03;12.36;74.85
69543;SHT31;56762;49.494;11.768;2022-09-27T14:25:31;12.26;75.07
69543;SHT31;56762;49.494;11.768;2022-09-27T14:27:59;12.09;76.29
69543;SHT31;56762;49.494;11.768;2022-09-27T14:30:28;11.87;77.60
69543;SHT31;56762;49.494;11.768;2022-09-27T14:32:56;11.79;80.20
69543;SHT31;56762;49.494;11.768;2022-09-27T14:35:28;11.73;79.39
69543;SHT31;56762;49.494;11.768;2022-09-27T14:38:18;11.65;79.76
69543;SHT31;56762;49.494;11.768;2022-09-27T14:41:05;11.59;81.44
69543;SHT31;56762;49.494;11.768;2022-09-27T14:43:34;11.51;80.55
69543;SHT31;56762;49.494;11.768;2022-09-27T14:46:05;11.48;81.09
69543;SHT31;56762;49.494;11.768;2022-09-27T14:48:35;11.42;81.47
69543;SHT31;56762;49.494;11.768;2022-09-27T14:51:16;11.43;82.20
69543;SHT31;56762;49.494;11.768;2022-09-27T14:53:51;11.42;82.26
69543;SHT31;56762;49.494;11.768;2022-09-27T14:56:25;11.48;81.65
69543;SHT31;56762;49.494;11.768;2022-09-27T14:59:00;11.48;81.75
69543;SHT31;56762;49.494;11.768;2022-09-27T15:01:28;11.46;82.51
69543;SHT31;56762;49.494;11.768;2022-09-27T15:04:04;11.46;82.46
69543;SHT31;56762;49.494;11.768;2022-09-27T15:06:34;11.48;81.82
69543;SHT31;56762;49.494;11.768;2022-09-27T15:09:04;11.51;82.55
69543;SHT31;56762;49.494;11.768;2022-09-27T15:11:36;11.56;81.54
69543;SHT31;56762;49.494;11.768;2022-09-27T15:14:11;11.63;81.76
69543;SHT31;56762;49.494;11.768;2022-09-27T15:16:43;11.66;82.83
69543;SHT31;56762;49.494;11.768;2022-09-27T15:19:13;11.72;82.04
69543;SHT31;56762;49.494;11.768;2022-09-27T15:21:43;11.73;82.04
69543;SHT31;56762;49.494;11.768;2022-09-27T15:24:47;11.76;81.57
69543;SHT31;56762;49.494;11.768;2022-09-27T15:27:17;11.77;80.84
69543;SHT31;56762;49.494;11.768;2022-09-27T15:29:48;11.76;81.53
69543;SHT31;56762;49.494;11.768;2022-09-27T15:32:18;11.76;81.50
69543;SHT31;56762;49.494;11.768;2022-09-27T15:34:47;11.76;80.71
69543;SHT31;56762;49.494;11.768;2022-09-27T15:37:25;11.85;80.05
69543;SHT31;56762;49.494;11.768;2022-09-27T15:39:56;11.91;77.70
69543;SHT31;56762;49.494;11.768;2022-09-27T15:42:53;11.83;78.43
69543;SHT31;56762;49.494;11.768;2022-09-27T15:45:27;11.80;77.49
69543;SHT31;56762;49.494;11.768;2022-09-27T15:48:05;11.79;75.86
69543;SHT31;56762;49.494;11.768;2022-09-27T15:50:38;11.65;77.18
69543;SHT31;56762;49.494;11.768;2022-09-27T15:53:08;11.54;77.15
69543;SHT31;56762;49.494;11.768;2022-09-27T15:55:41;11.48;75.84
69543;SHT31;56762;49.494;11.768;2022-09-27T15:58:14;11.35;77.44
69543;SHT31;56762;49.494;11.768;2022-09-27T16:00:50;11.27;78.06
69543;SHT31;56762;49.494;11.768;2022-09-27T16:03:18;11.21;78.94
69543;SHT31;56762;49.494;11.768;2022-09-27T16:05:47;11.18;78.14